sensor_id;sensor_type;location;lat;lon;timestamp;P1;durP1;ratioP1;P2;durP2;ratioP2
21095;SDS011;10706;49.036;12.112;2022-07-01T00:00:48;14.65;;;6.72;;
21095;SDS011;10706;49.036;12.112;2022-07-01T00:03:14;17.35;;;6.07;;
21095;SDS011;10706;49.036;12.112;2022-07-01T00:05:39;14.75;;;6.25;;
21095;SDS011;10706;49.036;12.112;2022-07-01T00:08:05;14.52;;;6.13;;
21095;SDS011;10706;49.036;12.112;2022-07-01T00:10:31;16.20;;;6.60;;
21095;SDS011;10706;49.036;12.112;2022-07-01T00:12:56;15.50;;;5.40;;
21095;SDS011;10706;49.036;12.112;2022-07-01T00:15:22;13.20;;;5.70;;
21095;SDS011;10706;49.036;12.112;2022-07-01T00:17:48;16.08;;;5.90;;
21095;SDS011;10706;49.036;12.112;2022-07-01T00:20:13;11.30;;;5.22;;
21095;SDS011;10706;49.036;12.112;2022-07-01T00:22:39;13.15;;;5.32;;
21095;SDS011;10706;49.036;12.112;2022-07-01T00:25:05;11.07;;;5.45;;
21095;SDS011;10706;49.036;12.112;2022-07-01T00:27:32;13.48;;;5.78;;
21095;SDS011;10706;49.036;12.112;2022-07-01T00:29:57;17.58;;;6.75;;
21095;SDS011;10706;49.036;12.112;2022-07-01T00:32:23;18.83;;;5.70;;
21095;SDS011;10706;49.036;12.112;2022-07-01T00:34:48;12.57;;;5.18;;
21095;SDS011;10706;49.036;12.112;2022-07-01T00:37:14;17.40;;;5.10;;
21095;SDS011;10706;49.036;12.112;2022-07-01T00:39:39;12.93;;;5.25;;
21095;SDS011;10706;49.036;12.112;2022-07-01T00:42:05;16.33;;;5.10;;
21095;SDS011;10706;49.036;12.112;2022-07-01T00:44:31;14.82;;;5.13;;
21095;SDS011;10706;49.036;12.112;2022-07-01T00:46:58;15.93;;;5.18;;
21095;SDS011;10706;49.036;12.112;2022-07-01T00:49:25;11.38;;;4.72;;
21095;SDS011;10706;49.036;12.112;2022-07-01T00:51:51;11.30;;;4.40;;
21095;SDS011;10706;49.036;12.112;2022-07-01T00:54:17;14.30;;;4.40;;
21095;SDS011;10706;49.036;12.112;2022-07-01T00:56:44;10.23;;;3.88;;
21095;SDS011;10706;49.036;12.112;2022-07-01T00:59:10;9.82;;;3.55;;
21095;SDS011;10706;49.036;12.112;2022-07-01T01:01:35;9.90;;;4.00;;
21095;SDS011;10706;49.036;12.112;2022-07-01T01:04:01;10.43;;;3.63;;
21095;SDS011;10706;49.036;12.112;2022-07-01T01:06:27;7.03;;;3.13;;
21095;SDS011;10706;49.036;12.112;2022-07-01T01:08:53;7.15;;;3.25;;
21095;SDS011;10706;49.036;12.112;2022-07-01T01:11:18;7.55;;;3.10;;
21095;SDS011;10706;49.036;12.112;2022-07-01T01:13:45;12.90;;;3.38;;
21095;SDS011;10706;49.036;12.112;2022-07-01T01:16:17;7.60;;;3.05;;
21095;SDS011;10706;49.036;12.112;2022-07-01T01:18:44;8.15;;;3.00;;
21095;SDS011;10706;49.036;12.112;2022-07-01T01:21:09;8.05;;;3.30;;
21095;SDS011;10706;49.036;12.112;2022-07-01T01:23:35;5.50;;;2.67;;
21095;SDS011;10706;49.036;12.112;2022-07-01T01:26:01;7.90;;;3.15;;
21095;SDS011;10706;49.036;12.112;2022-07-01T01:28:27;7.68;;;2.58;;
21095;SDS011;10706;49.036;12.112;2022-07-01T01:30:53;12.35;;;2.83;;
21095;SDS011;10706;49.036;12.112;2022-07-01T01:33:18;11.48;;;2.97;;
21095;SDS011;10706;49.036;12.112;2022-07-01T01:35:44;5.63;;;2.35;;
21095;SDS011;10706;49.036;12.112;2022-07-01T01:38:09;8.95;;;2.63;;
21095;SDS011;10706;49.036;12.112;2022-07-01T01:40:35;5.93;;;2.30;;
21095;SDS011;10706;49.036;12.112;2022-07-01T01:43:01;4.93;;;2.28;;
21095;SDS011;10706;49.036;12.112;2022-07-01T01:45:26;6.95;;;2.40;;
21095;SDS011;10706;49.036;12.112;2022-07-01T01:47:52;8.25;;;2.65;;
21095;SDS011;10706;49.036;12.112;2022-07-01T01:50:17;6.22;;;3.10;;
21095;SDS011;10706;49.036;12.112;2022-07-01T01:52:44;9.73;;;2.50;;
21095;SDS011;10706;49.036;12.112;2022-07-01T01:55:10;6.07;;;2.45;;
21095;SDS011;10706;49.036;12.112;2022-07-01T01:57:36;8.65;;;2.97;;
21095;SDS011;10706;49.036;12.112;2022-07-01T02:00:03;4.32;;;2.30;;
21095;SDS011;10706;49.036;12.112;2022-07-01T02:02:30;8.48;;;2.28;;
21095;SDS011;10706;49.036;12.112;2022-07-01T02:04:55;6.75;;;2.58;;
21095;SDS011;10706;49.036;12.112;2022-07-01T02:07:21;6.65;;;2.65;;
21095;SDS011;10706;49.036;12.112;2022-07-01T02:09:46;5.75;;;2.50;;
21095;SDS011;10706;49.036;12.112;2022-07-01T02:12:12;11.27;;;2.83;;
21095;SDS011;10706;49.036;12.112;2022-07-01T02:14:37;6.93;;;2.35;;
21095;SDS011;10706;49.036;12.112;2022-07-01T02:17:03;5.57;;;2.53;;
21095;SDS011;10706;49.036;12.112;2022-07-01T02:19:29;5.05;;;2.42;;
21095;SDS011;10706;49.036;12.112;2022-07-01T02:21:54;6.93;;;2.50;;
21095;SDS011;10706;49.036;12.112;2022-07-01T02:24:20;6.82;;;2.55;;
21095;SDS011;10706;49.036;12.112;2022-07-01T02:26:46;5.85;;;2.42;;
21095;SDS011;10706;49.036;12.112;2022-07-01T02:29:11;5.55;;;2.60;;
21095;SDS011;10706;49.036;12.112;2022-07-01T02:31:38;4.38;;;2.10;;
21095;SDS011;10706;49.036;12.112;2022-07-01T02:34:04;11.45;;;2.47;;
21095;SDS011;10706;49.036;12.112;2022-07-01T02:36:29;5.65;;;2.55;;
21095;SDS011;10706;49.036;12.112;2022-07-01T02:38:56;3.95;;;2.22;;
21095;SDS011;10706;49.036;12.112;2022-07-01T02:41:21;5.57;;;2.22;;
21095;SDS011;10706;49.036;12.112;2022-07-01T02:43:47;5.78;;;2.50;;
21095;SDS011;10706;49.036;12.112;2022-07-01T02:46:12;9.07;;;2.53;;
21095;SDS011;10706;49.036;12.112;2022-07-01T02:48:38;5.88;;;2.53;;
21095;SDS011;10706;49.036;12.112;2022-07-01T02:51:03;5.00;;;2.38;;
21095;SDS011;10706;49.036;12.112;2022-07-01T02:53:29;8.63;;;2.85;;
21095;SDS011;10706;49.036;12.112;2022-07-01T02:55:54;4.63;;;2.20;;
21095;SDS011;10706;49.036;12.112;2022-07-01T02:58:20;8.93;;;2.45;;
21095;SDS011;10706;49.036;12.112;2022-07-01T03:00:45;7.82;;;2.38;;
21095;SDS011;10706;49.036;12.112;2022-07-01T03:03:13;13.02;;;2.45;;
21095;SDS011;10706;49.036;12.112;2022-07-01T03:05:39;4.97;;;2.55;;
21095;SDS011;10706;49.036;12.112;2022-07-01T03:08:04;8.05;;;2.92;;
21095;SDS011;10706;49.036;12.112;2022-07-01T03:10:30;6.88;;;2.58;;
21095;SDS011;10706;49.036;12.112;2022-07-01T03:12:55;6.38;;;2.53;;
21095;SDS011;10706;49.036;12.112;2022-07-01T03:15:23;5.30;;;2.47;;
21095;SDS011;10706;49.036;12.112;2022-07-01T03:17:49;8.40;;;2.95;;
21095;SDS011;10706;49.036;12.112;2022-07-01T03:20:15;5.45;;;2.28;;
21095;SDS011;10706;49.036;12.112;2022-07-01T03:22:41;5.15;;;2.45;;
21095;SDS011;10706;49.036;12.112;2022-07-01T03:25:08;7.93;;;2.80;;
21095;SDS011;10706;49.036;12.112;2022-07-01T03:27:34;3.70;;;2.25;;
21095;SDS011;10706;49.036;12.112;2022-07-01T03:30:00;7.47;;;2.78;;
21095;SDS011;10706;49.036;12.112;2022-07-01T03:32:26;6.57;;;2.40;;
21095;SDS011;10706;49.036;12.112;2022-07-01T03:34:52;4.63;;;2.22;;
21095;SDS011;10706;49.036;12.112;2022-07-01T03:37:19;3.97;;;2.13;;
21095;SDS011;10706;49.036;12.112;2022-07-01T03:39:45;5.93;;;2.80;;
21095;SDS011;10706;49.036;12.112;2022-07-01T03:42:11;9.30;;;2.72;;
21095;SDS011;10706;49.036;12.112;2022-07-01T03:44:37;5.35;;;2.65;;
21095;SDS011;10706;49.036;12.112;2022-07-01T03:47:03;5.47;;;2.70;;
21095;SDS011;10706;49.036;12.112;2022-07-01T03:49:31;6.20;;;2.42;;
21095;SDS011;10706;49.036;12.112;2022-07-01T03:51:57;7.93;;;2.42;;
21095;SDS011;10706;49.036;12.112;2022-07-01T03:54:22;4.80;;;2.20;;
21095;SDS011;10706;49.036;12.112;2022-07-01T03:57:04;9.68;;;2.03;;
21095;SDS011;10706;49.036;12.112;2022-07-01T03:59:35;6.30;;;2.33;;
21095;SDS011;10706;49.036;12.112;2022-07-01T04:02:02;5.45;;;2.50;;
21095;SDS011;10706;49.036;12.112;2022-07-01T04:04:28;6.95;;;2.40;;
21095;SDS011;10706;49.036;12.112;2022-07-01T04:06:55;6.25;;;2.10;;
21095;SDS011;10706;49.036;12.112;2022-07-01T04:09:22;3.72;;;1.90;;
21095;SDS011;10706;49.036;12.112;2022-07-01T04:11:48;3.90;;;1.95;;
21095;SDS011;10706;49.036;12.112;2022-07-01T04:14:14;3.05;;;1.90;;
21095;SDS011;10706;49.036;12.112;2022-07-01T04:16:41;5.32;;;2.30;;
21095;SDS011;10706;49.036;12.112;2022-07-01T04:19:07;5.20;;;2.40;;
21095;SDS011;10706;49.036;12.112;2022-07-01T04:21:33;7.25;;;1.95;;
21095;SDS011;10706;49.036;12.112;2022-07-01T04:24:28;7.50;;;2.13;;
21095;SDS011;10706;49.036;12.112;2022-07-01T04:26:57;3.88;;;1.95;;
21095;SDS011;10706;49.036;12.112;2022-07-01T04:29:23;4.47;;;2.13;;
21095;SDS011;10706;49.036;12.112;2022-07-01T04:31:48;2.40;;;1.70;;
21095;SDS011;10706;49.036;12.112;2022-07-01T04:34:15;5.72;;;2.08;;
21095;SDS011;10706;49.036;12.112;2022-07-01T04:36:40;4.68;;;2.00;;
21095;SDS011;10706;49.036;12.112;2022-07-01T04:39:06;5.05;;;2.10;;
21095;SDS011;10706;49.036;12.112;2022-07-01T04:41:32;4.55;;;2.05;;
21095;SDS011;10706;49.036;12.112;2022-07-01T04:44:17;6.45;;;1.85;;
21095;SDS011;10706;49.036;12.112;2022-07-01T04:46:43;2.47;;;1.67;;
21095;SDS011;10706;49.036;12.112;2022-07-01T04:49:09;5.28;;;2.00;;
21095;SDS011;10706;49.036;12.112;2022-07-01T04:51:35;4.47;;;1.90;;
21095;SDS011;10706;49.036;12.112;2022-07-01T04:54:01;3.10;;;1.73;;
21095;SDS011;10706;49.036;12.112;2022-07-01T04:56:28;4.38;;;2.35;;
21095;SDS011;10706;49.036;12.112;2022-07-01T04:58:54;5.63;;;2.17;;
21095;SDS011;10706;49.036;12.112;2022-07-01T05:01:20;5.57;;;2.20;;
21095;SDS011;10706;49.036;12.112;2022-07-01T05:03:46;6.03;;;1.90;;
21095;SDS011;10706;49.036;12.112;2022-07-01T05:06:11;5.38;;;2.30;;
21095;SDS011;10706;49.036;12.112;2022-07-01T05:08:37;3.08;;;2.03;;
21095;SDS011;10706;49.036;12.112;2022-07-01T05:11:02;4.88;;;2.20;;
21095;SDS011;10706;49.036;12.112;2022-07-01T05:13:28;3.92;;;2.13;;
21095;SDS011;10706;49.036;12.112;2022-07-01T05:15:53;2.65;;;1.70;;
21095;SDS011;10706;49.036;12.112;2022-07-01T05:18:19;4.32;;;1.75;;
21095;SDS011;10706;49.036;12.112;2022-07-01T05:21:03;4.47;;;1.75;;
21095;SDS011;10706;49.036;12.112;2022-07-01T05:23:47;5.80;;;2.20;;
21095;SDS011;10706;49.036;12.112;2022-07-01T05:26:12;8.23;;;2.00;;
21095;SDS011;10706;49.036;12.112;2022-07-01T05:28:41;5.03;;;1.90;;
21095;SDS011;10706;49.036;12.112;2022-07-01T05:31:07;5.13;;;2.10;;
21095;SDS011;10706;49.036;12.112;2022-07-01T05:33:33;5.97;;;2.33;;
21095;SDS011;10706;49.036;12.112;2022-07-01T05:35:58;4.93;;;2.00;;
21095;SDS011;10706;49.036;12.112;2022-07-01T05:38:24;7.07;;;2.03;;
21095;SDS011;10706;49.036;12.112;2022-07-01T05:40:49;3.95;;;1.98;;
21095;SDS011;10706;49.036;12.112;2022-07-01T05:43:17;4.80;;;2.10;;
21095;SDS011;10706;49.036;12.112;2022-07-01T05:45:43;3.38;;;1.75;;
21095;SDS011;10706;49.036;12.112;2022-07-01T05:48:08;3.72;;;2.13;;
21095;SDS011;10706;49.036;12.112;2022-07-01T05:50:34;4.00;;;1.90;;
21095;SDS011;10706;49.036;12.112;2022-07-01T05:52:59;4.70;;;1.90;;
21095;SDS011;10706;49.036;12.112;2022-07-01T05:55:25;7.10;;;2.20;;
21095;SDS011;10706;49.036;12.112;2022-07-01T05:57:51;7.57;;;1.90;;
21095;SDS011;10706;49.036;12.112;2022-07-01T06:00:17;3.63;;;1.80;;
21095;SDS011;10706;49.036;12.112;2022-07-01T06:02:42;6.00;;;1.88;;
21095;SDS011;10706;49.036;12.112;2022-07-01T06:05:08;5.18;;;2.00;;
21095;SDS011;10706;49.036;12.112;2022-07-01T06:07:34;4.10;;;1.80;;
21095;SDS011;10706;49.036;12.112;2022-07-01T06:09:59;8.20;;;2.03;;
21095;SDS011;10706;49.036;12.112;2022-07-01T06:12:25;4.63;;;1.80;;
21095;SDS011;10706;49.036;12.112;2022-07-01T06:14:51;2.17;;;1.38;;
21095;SDS011;10706;49.036;12.112;2022-07-01T06:17:16;4.20;;;1.70;;
21095;SDS011;10706;49.036;12.112;2022-07-01T06:19:43;4.53;;;2.03;;
21095;SDS011;10706;49.036;12.112;2022-07-01T06:22:08;4.85;;;1.75;;
21095;SDS011;10706;49.036;12.112;2022-07-01T06:24:34;4.10;;;1.80;;
21095;SDS011;10706;49.036;12.112;2022-07-01T06:27:00;6.10;;;1.70;;
21095;SDS011;10706;49.036;12.112;2022-07-01T06:29:26;4.05;;;1.90;;
21095;SDS011;10706;49.036;12.112;2022-07-01T06:31:54;5.05;;;1.85;;
21095;SDS011;10706;49.036;12.112;2022-07-01T06:34:19;3.45;;;1.90;;
21095;SDS011;10706;49.036;12.112;2022-07-01T06:36:45;3.40;;;1.67;;
21095;SDS011;10706;49.036;12.112;2022-07-01T06:39:11;3.45;;;1.73;;
21095;SDS011;10706;49.036;12.112;2022-07-01T06:41:37;4.50;;;1.77;;
21095;SDS011;10706;49.036;12.112;2022-07-01T06:44:02;4.00;;;1.80;;
21095;SDS011;10706;49.036;12.112;2022-07-01T06:46:29;5.00;;;1.73;;
21095;SDS011;10706;49.036;12.112;2022-07-01T06:48:56;3.22;;;1.80;;
21095;SDS011;10706;49.036;12.112;2022-07-01T06:51:23;4.93;;;2.00;;
21095;SDS011;10706;49.036;12.112;2022-07-01T06:53:49;4.43;;;1.98;;
21095;SDS011;10706;49.036;12.112;2022-07-01T06:56:15;11.23;;;2.05;;
21095;SDS011;10706;49.036;12.112;2022-07-01T06:58:41;5.30;;;1.65;;
21095;SDS011;10706;49.036;12.112;2022-07-01T07:01:07;2.22;;;1.60;;
21095;SDS011;10706;49.036;12.112;2022-07-01T07:03:32;5.93;;;1.92;;
21095;SDS011;10706;49.036;12.112;2022-07-01T07:05:59;5.60;;;1.95;;
21095;SDS011;10706;49.036;12.112;2022-07-01T07:08:27;5.32;;;2.00;;
21095;SDS011;10706;49.036;12.112;2022-07-01T07:10:53;3.55;;;1.90;;
21095;SDS011;10706;49.036;12.112;2022-07-01T07:13:19;7.13;;;1.92;;
21095;SDS011;10706;49.036;12.112;2022-07-01T07:15:45;4.32;;;1.85;;
21095;SDS011;10706;49.036;12.112;2022-07-01T07:18:10;6.20;;;1.80;;
21095;SDS011;10706;49.036;12.112;2022-07-01T07:20:37;5.93;;;1.83;;
21095;SDS011;10706;49.036;12.112;2022-07-01T07:23:02;3.53;;;1.80;;
21095;SDS011;10706;49.036;12.112;2022-07-01T07:25:28;2.60;;;1.70;;
21095;SDS011;10706;49.036;12.112;2022-07-01T07:27:53;4.05;;;2.00;;
21095;SDS011;10706;49.036;12.112;2022-07-01T07:30:19;3.95;;;2.05;;
21095;SDS011;10706;49.036;12.112;2022-07-01T07:32:45;2.75;;;1.88;;
21095;SDS011;10706;49.036;12.112;2022-07-01T07:35:11;4.30;;;1.50;;
21095;SDS011;10706;49.036;12.112;2022-07-01T07:37:37;3.83;;;1.80;;
21095;SDS011;10706;49.036;12.112;2022-07-01T07:40:03;1.98;;;1.52;;
21095;SDS011;10706;49.036;12.112;2022-07-01T07:42:31;2.38;;;1.60;;
21095;SDS011;10706;49.036;12.112;2022-07-01T07:44:57;2.25;;;1.50;;
21095;SDS011;10706;49.036;12.112;2022-07-01T07:47:23;5.05;;;1.70;;
21095;SDS011;10706;49.036;12.112;2022-07-01T07:49:48;1.80;;;1.20;;
21095;SDS011;10706;49.036;12.112;2022-07-01T07:52:14;2.90;;;1.40;;
21095;SDS011;10706;49.036;12.112;2022-07-01T07:54:39;2.28;;;1.33;;
21095;SDS011;10706;49.036;12.112;2022-07-01T07:57:05;1.85;;;1.38;;
21095;SDS011;10706;49.036;12.112;2022-07-01T07:59:32;2.55;;;1.20;;
21095;SDS011;10706;49.036;12.112;2022-07-01T08:01:57;1.75;;;1.00;;
21095;SDS011;10706;49.036;12.112;2022-07-01T08:04:23;2.75;;;1.00;;
21095;SDS011;10706;49.036;12.112;2022-07-01T08:06:48;2.17;;;1.00;;
21095;SDS011;10706;49.036;12.112;2022-07-01T08:09:14;2.10;;;1.20;;
21095;SDS011;10706;49.036;12.112;2022-07-01T08:11:39;2.38;;;1.00;;
21095;SDS011;10706;49.036;12.112;2022-07-01T08:14:05;2.13;;;1.02;;
21095;SDS011;10706;49.036;12.112;2022-07-01T08:16:30;1.63;;;0.90;;
21095;SDS011;10706;49.036;12.112;2022-07-01T08:18:56;2.03;;;1.10;;
21095;SDS011;10706;49.036;12.112;2022-07-01T08:21:22;1.27;;;1.00;;
21095;SDS011;10706;49.036;12.112;2022-07-01T08:23:48;1.98;;;1.05;;
21095;SDS011;10706;49.036;12.112;2022-07-01T08:26:14;1.55;;;1.20;;
21095;SDS011;10706;49.036;12.112;2022-07-01T08:28:41;2.30;;;1.10;;
21095;SDS011;10706;49.036;12.112;2022-07-01T08:31:07;1.58;;;1.00;;
21095;SDS011;10706;49.036;12.112;2022-07-01T08:33:32;3.38;;;1.17;;
21095;SDS011;10706;49.036;12.112;2022-07-01T08:35:58;1.10;;;1.00;;
21095;SDS011;10706;49.036;12.112;2022-07-01T08:38:24;1.50;;;1.00;;
21095;SDS011;10706;49.036;12.112;2022-07-01T08:40:49;1.90;;;1.08;;
21095;SDS011;10706;49.036;12.112;2022-07-01T08:43:15;1.98;;;1.20;;
21095;SDS011;10706;49.036;12.112;2022-07-01T08:45:40;2.33;;;1.20;;
21095;SDS011;10706;49.036;12.112;2022-07-01T08:48:07;3.22;;;1.25;;
21095;SDS011;10706;49.036;12.112;2022-07-01T08:50:36;3.80;;;2.38;;
21095;SDS011;10706;49.036;12.112;2022-07-01T08:53:04;2.03;;;1.17;;
21095;SDS011;10706;49.036;12.112;2022-07-01T08:55:30;1.85;;;1.15;;
21095;SDS011;10706;49.036;12.112;2022-07-01T08:57:56;1.20;;;1.00;;
21095;SDS011;10706;49.036;12.112;2022-07-01T09:00:21;1.65;;;1.13;;
21095;SDS011;10706;49.036;12.112;2022-07-01T09:02:57;1.30;;;1.10;;
21095;SDS011;10706;49.036;12.112;2022-07-01T09:05:24;2.80;;;1.10;;
21095;SDS011;10706;49.036;12.112;2022-07-01T09:07:58;2.72;;;1.27;;
21095;SDS011;10706;49.036;12.112;2022-07-01T09:10:28;2.10;;;1.38;;
21095;SDS011;10706;49.036;12.112;2022-07-01T09:13:08;1.20;;;1.10;;
21095;SDS011;10706;49.036;12.112;2022-07-01T09:15:38;3.10;;;1.05;;
21095;SDS011;10706;49.036;12.112;2022-07-01T09:20:32;1.48;;;1.10;;
21095;SDS011;10706;49.036;12.112;2022-07-01T09:23:06;0.80;;;0.80;;
21095;SDS011;10706;49.036;12.112;2022-07-01T09:28:09;1.75;;;1.00;;
21095;SDS011;10706;49.036;12.112;2022-07-01T09:30:47;1.00;;;0.88;;
21095;SDS011;10706;49.036;12.112;2022-07-01T09:33:14;1.10;;;0.80;;
21095;SDS011;10706;49.036;12.112;2022-07-01T09:35:42;1.05;;;0.80;;
21095;SDS011;10706;49.036;12.112;2022-07-01T09:38:13;1.23;;;0.57;;
21095;SDS011;10706;49.036;12.112;2022-07-01T09:43:18;1.33;;;0.90;;
21095;SDS011;10706;49.036;12.112;2022-07-01T09:46:05;1.02;;;0.90;;
21095;SDS011;10706;49.036;12.112;2022-07-01T09:51:04;2.15;;;1.20;;
21095;SDS011;10706;49.036;12.112;2022-07-01T09:53:31;1.30;;;1.05;;
21095;SDS011;10706;49.036;12.112;2022-07-01T09:55:57;3.20;;;1.10;;
21095;SDS011;10706;49.036;12.112;2022-07-01T09:58:22;1.63;;;0.95;;
21095;SDS011;10706;49.036;12.112;2022-07-01T10:00:48;1.05;;;0.95;;
21095;SDS011;10706;49.036;12.112;2022-07-01T10:03:14;1.23;;;1.10;;
21095;SDS011;10706;49.036;12.112;2022-07-01T10:05:42;3.35;;;1.50;;
21095;SDS011;10706;49.036;12.112;2022-07-01T10:14:01;2.05;;;1.42;;
21095;SDS011;10706;49.036;12.112;2022-07-01T10:16:28;2.50;;;1.40;;
21095;SDS011;10706;49.036;12.112;2022-07-01T10:18:55;3.15;;;1.30;;
21095;SDS011;10706;49.036;12.112;2022-07-01T10:21:28;3.67;;;1.63;;
21095;SDS011;10706;49.036;12.112;2022-07-01T10:24:10;2.38;;;1.40;;
21095;SDS011;10706;49.036;12.112;2022-07-01T10:26:38;3.00;;;1.30;;
21095;SDS011;10706;49.036;12.112;2022-07-01T10:29:03;2.88;;;1.42;;
21095;SDS011;10706;49.036;12.112;2022-07-01T10:31:35;2.35;;;1.25;;
21095;SDS011;10706;49.036;12.112;2022-07-01T10:34:02;2.53;;;1.55;;
21095;SDS011;10706;49.036;12.112;2022-07-01T10:36:30;2.22;;;1.45;;
21095;SDS011;10706;49.036;12.112;2022-07-01T10:41:26;2.85;;;1.50;;
21095;SDS011;10706;49.036;12.112;2022-07-01T10:43:56;4.47;;;1.70;;
21095;SDS011;10706;49.036;12.112;2022-07-01T10:49:13;5.13;;;2.13;;
21095;SDS011;10706;49.036;12.112;2022-07-01T10:57:31;3.08;;;1.60;;
21095;SDS011;10706;49.036;12.112;2022-07-01T11:02:28;2.45;;;1.60;;
21095;SDS011;10706;49.036;12.112;2022-07-01T11:04:55;2.75;;;1.50;;
21095;SDS011;10706;49.036;12.112;2022-07-01T11:07:27;2.42;;;1.60;;
21095;SDS011;10706;49.036;12.112;2022-07-01T11:09:54;2.38;;;1.73;;
21095;SDS011;10706;49.036;12.112;2022-07-01T11:12:20;2.90;;;1.83;;
21095;SDS011;10706;49.036;12.112;2022-07-01T11:14:50;4.18;;;1.70;;
21095;SDS011;10706;49.036;12.112;2022-07-01T11:17:16;2.35;;;1.48;;
21095;SDS011;10706;49.036;12.112;2022-07-01T11:19:49;2.67;;;1.42;;
21095;SDS011;10706;49.036;12.112;2022-07-01T11:22:23;4.55;;;1.42;;
21095;SDS011;10706;49.036;12.112;2022-07-01T11:24:51;2.72;;;1.50;;
21095;SDS011;10706;49.036;12.112;2022-07-01T11:27:26;3.13;;;1.58;;
21095;SDS011;10706;49.036;12.112;2022-07-01T11:29:52;1.63;;;1.30;;
21095;SDS011;10706;49.036;12.112;2022-07-01T11:32:26;3.30;;;1.23;;
21095;SDS011;10706;49.036;12.112;2022-07-01T11:34:52;2.55;;;1.30;;
21095;SDS011;10706;49.036;12.112;2022-07-01T11:37:19;2.42;;;1.30;;
21095;SDS011;10706;49.036;12.112;2022-07-01T11:40:07;2.30;;;1.45;;
21095;SDS011;10706;49.036;12.112;2022-07-01T11:42:34;3.30;;;1.40;;
21095;SDS011;10706;49.036;12.112;2022-07-01T11:45:00;3.10;;;1.45;;
21095;SDS011;10706;49.036;12.112;2022-07-01T11:47:27;1.33;;;1.23;;
21095;SDS011;10706;49.036;12.112;2022-07-01T11:49:53;3.53;;;1.42;;
21095;SDS011;10706;49.036;12.112;2022-07-01T11:52:19;2.03;;;1.48;;
21095;SDS011;10706;49.036;12.112;2022-07-01T11:54:46;2.05;;;1.60;;
21095;SDS011;10706;49.036;12.112;2022-07-01T11:57:17;2.40;;;1.27;;
21095;SDS011;10706;49.036;12.112;2022-07-01T11:59:53;2.70;;;1.30;;
21095;SDS011;10706;49.036;12.112;2022-07-01T12:02:20;3.28;;;1.48;;
21095;SDS011;10706;49.036;12.112;2022-07-01T12:04:47;4.78;;;1.55;;
21095;SDS011;10706;49.036;12.112;2022-07-01T12:07:14;1.33;;;1.20;;
21095;SDS011;10706;49.036;12.112;2022-07-01T12:09:41;1.75;;;1.40;;
21095;SDS011;10706;49.036;12.112;2022-07-01T12:12:07;2.33;;;1.13;;
21095;SDS011;10706;49.036;12.112;2022-07-01T12:14:53;1.40;;;1.15;;
21095;SDS011;10706;49.036;12.112;2022-07-01T12:17:20;2.40;;;1.20;;
21095;SDS011;10706;49.036;12.112;2022-07-01T12:19:46;2.40;;;1.13;;
21095;SDS011;10706;49.036;12.112;2022-07-01T12:22:24;1.35;;;1.05;;
21095;SDS011;10706;49.036;12.112;2022-07-01T12:24:52;1.50;;;1.20;;
21095;SDS011;10706;49.036;12.112;2022-07-01T12:27:28;1.40;;;1.00;;
21095;SDS011;10706;49.036;12.112;2022-07-01T12:29:54;1.00;;;0.90;;
21095;SDS011;10706;49.036;12.112;2022-07-01T12:37:20;0.80;;;0.80;;
21095;SDS011;10706;49.036;12.112;2022-07-01T12:39:52;1.88;;;1.00;;
21095;SDS011;10706;49.036;12.112;2022-07-01T12:42:20;0.93;;;0.90;;
21095;SDS011;10706;49.036;12.112;2022-07-01T12:44:49;1.48;;;0.93;;
21095;SDS011;10706;49.036;12.112;2022-07-01T13:05:31;4.07;;;1.42;;
21095;SDS011;10706;49.036;12.112;2022-07-01T13:11:35;1.05;;;0.90;;
21095;SDS011;10706;49.036;12.112;2022-07-01T13:14:01;1.17;;;0.90;;
21095;SDS011;10706;49.036;12.112;2022-07-01T13:16:27;2.60;;;0.95;;
21095;SDS011;10706;49.036;12.112;2022-07-01T13:18:52;0.80;;;0.80;;
21095;SDS011;10706;49.036;12.112;2022-07-01T13:21:18;0.80;;;0.80;;
21095;SDS011;10706;49.036;12.112;2022-07-01T13:23:44;1.02;;;0.90;;
21095;SDS011;10706;49.036;12.112;2022-07-01T13:26:09;1.73;;;1.17;;
21095;SDS011;10706;49.036;12.112;2022-07-01T13:28:35;1.05;;;0.93;;
21095;SDS011;10706;49.036;12.112;2022-07-01T13:31:01;1.13;;;1.02;;
21095;SDS011;10706;49.036;12.112;2022-07-01T13:33:26;2.20;;;1.15;;
21095;SDS011;10706;49.036;12.112;2022-07-01T13:35:52;1.30;;;1.05;;
21095;SDS011;10706;49.036;12.112;2022-07-01T13:38:17;2.22;;;1.30;;
21095;SDS011;10706;49.036;12.112;2022-07-01T13:40:43;1.27;;;1.17;;
21095;SDS011;10706;49.036;12.112;2022-07-01T13:43:08;6.85;;;1.25;;
21095;SDS011;10706;49.036;12.112;2022-07-01T13:45:34;1.95;;;1.13;;
21095;SDS011;10706;49.036;12.112;2022-07-01T13:47:59;1.40;;;0.88;;
21095;SDS011;10706;49.036;12.112;2022-07-01T13:50:25;3.72;;;1.70;;
21095;SDS011;10706;49.036;12.112;2022-07-01T13:52:51;1.73;;;1.10;;
21095;SDS011;10706;49.036;12.112;2022-07-01T13:55:16;2.90;;;1.30;;
21095;SDS011;10706;49.036;12.112;2022-07-01T13:57:42;1.75;;;1.10;;
21095;SDS011;10706;49.036;12.112;2022-07-01T14:00:08;2.90;;;1.10;;
21095;SDS011;10706;49.036;12.112;2022-07-01T14:02:35;1.88;;;1.13;;
21095;SDS011;10706;49.036;12.112;2022-07-01T14:05:00;2.22;;;1.00;;
21095;SDS011;10706;49.036;12.112;2022-07-01T14:07:26;2.28;;;1.20;;
21095;SDS011;10706;49.036;12.112;2022-07-01T14:09:52;1.95;;;1.23;;
21095;SDS011;10706;49.036;12.112;2022-07-01T14:12:17;1.23;;;1.13;;
21095;SDS011;10706;49.036;12.112;2022-07-01T14:14:43;3.55;;;1.10;;
21095;SDS011;10706;49.036;12.112;2022-07-01T14:17:08;3.20;;;1.10;;
21095;SDS011;10706;49.036;12.112;2022-07-01T14:19:34;1.25;;;1.10;;
21095;SDS011;10706;49.036;12.112;2022-07-01T14:22:00;6.00;;;1.20;;
21095;SDS011;10706;49.036;12.112;2022-07-01T14:24:26;6.05;;;1.10;;
21095;SDS011;10706;49.036;12.112;2022-07-01T14:26:52;1.98;;;1.05;;
21095;SDS011;10706;49.036;12.112;2022-07-01T14:29:17;3.35;;;1.00;;
21095;SDS011;10706;49.036;12.112;2022-07-01T14:31:43;1.50;;;1.40;;
21095;SDS011;10706;49.036;12.112;2022-07-01T14:34:09;3.03;;;1.13;;
21095;SDS011;10706;49.036;12.112;2022-07-01T14:36:34;1.20;;;1.10;;
21095;SDS011;10706;49.036;12.112;2022-07-01T14:39:00;2.15;;;1.30;;
21095;SDS011;10706;49.036;12.112;2022-07-01T14:41:25;1.70;;;1.20;;
21095;SDS011;10706;49.036;12.112;2022-07-01T14:43:51;2.15;;;1.20;;
21095;SDS011;10706;49.036;12.112;2022-07-01T14:46:17;2.92;;;1.30;;
21095;SDS011;10706;49.036;12.112;2022-07-01T14:48:43;2.70;;;1.63;;
21095;SDS011;10706;49.036;12.112;2022-07-01T14:51:08;5.00;;;1.65;;
21095;SDS011;10706;49.036;12.112;2022-07-01T14:53:34;3.05;;;1.50;;
21095;SDS011;10706;49.036;12.112;2022-07-01T14:56:00;2.33;;;1.50;;
21095;SDS011;10706;49.036;12.112;2022-07-01T14:58:26;2.85;;;1.52;;
21095;SDS011;10706;49.036;12.112;2022-07-01T15:00:51;2.80;;;1.60;;
21095;SDS011;10706;49.036;12.112;2022-07-01T15:03:17;2.13;;;1.55;;
21095;SDS011;10706;49.036;12.112;2022-07-01T15:05:42;2.03;;;1.63;;
21095;SDS011;10706;49.036;12.112;2022-07-01T15:08:08;2.72;;;1.60;;
21095;SDS011;10706;49.036;12.112;2022-07-01T15:10:33;2.13;;;1.60;;
21095;SDS011;10706;49.036;12.112;2022-07-01T15:12:59;2.17;;;1.50;;
21095;SDS011;10706;49.036;12.112;2022-07-01T15:15:25;3.00;;;1.63;;
21095;SDS011;10706;49.036;12.112;2022-07-01T15:17:51;2.20;;;1.38;;
21095;SDS011;10706;49.036;12.112;2022-07-01T15:20:17;2.40;;;1.50;;
21095;SDS011;10706;49.036;12.112;2022-07-01T15:22:42;2.05;;;1.35;;
21095;SDS011;10706;49.036;12.112;2022-07-01T15:25:09;2.65;;;1.50;;
21095;SDS011;10706;49.036;12.112;2022-07-01T15:27:35;2.28;;;1.50;;